sensor_id;sensor_type;location;lat;lon;timestamp;P1;durP1;ratioP1;P2;durP2;ratioP2
64313;SDS011;50650;48.180;11.524;2023-05-24T00:02:09;2.90;;;1.75;;
64313;SDS011;50650;48.180;11.524;2023-05-24T00:04:38;6.78;;;2.45;;
64313;SDS011;50650;48.180;11.524;2023-05-24T00:07:05;2.42;;;2.17;;
64313;SDS011;50650;48.180;11.524;2023-05-24T00:09:31;3.42;;;2.58;;
64313;SDS011;50650;48.180;11.524;2023-05-24T00:11:59;5.45;;;2.13;;
64313;SDS011;50650;48.180;11.524;2023-05-24T00:14:26;2.85;;;2.13;;
64313;SDS011;50650;48.180;11.524;2023-05-24T00:16:52;2.88;;;2.17;;
64313;SDS011;50650;48.180;11.524;2023-05-24T00:19:19;2.72;;;2.15;;
64313;SDS011;50650;48.180;11.524;2023-05-24T00:21:45;3.78;;;2.72;;
64313;SDS011;50650;48.180;11.524;2023-05-24T00:24:12;3.72;;;2.17;;
64313;SDS011;50650;48.180;11.524;2023-05-24T00:26:39;2.80;;;2.33;;
64313;SDS011;50650;48.180;11.524;2023-05-24T00:29:06;2.78;;;2.10;;
64313;SDS011;50650;48.180;11.524;2023-05-24T00:31:33;3.90;;;2.10;;
64313;SDS011;50650;48.180;11.524;2023-05-24T00:33:59;4.65;;;2.33;;
64313;SDS011;50650;48.180;11.524;2023-05-24T00:36:26;3.50;;;2.10;;
64313;SDS011;50650;48.180;11.524;2023-05-24T00:38:52;2.90;;;2.40;;
64313;SDS011;50650;48.180;11.524;2023-05-24T00:41:19;3.03;;;2.33;;
64313;SDS011;50650;48.180;11.524;2023-05-24T00:43:45;4.03;;;2.45;;
64313;SDS011;50650;48.180;11.524;2023-05-24T00:46:15;2.58;;;2.15;;
64313;SDS011;50650;48.180;11.524;2023-05-24T00:48:42;2.58;;;2.30;;
64313;SDS011;50650;48.180;11.524;2023-05-24T00:51:09;3.42;;;2.58;;
64313;SDS011;50650;48.180;11.524;2023-05-24T00:53:36;4.15;;;2.63;;
64313;SDS011;50650;48.180;11.524;2023-05-24T00:56:02;2.78;;;2.38;;
64313;SDS011;50650;48.180;11.524;2023-05-24T00:58:29;3.85;;;2.65;;
64313;SDS011;50650;48.180;11.524;2023-05-24T01:00:56;3.83;;;2.58;;
64313;SDS011;50650;48.180;11.524;2023-05-24T01:03:26;4.15;;;2.85;;
64313;SDS011;50650;48.180;11.524;2023-05-24T01:05:54;2.58;;;2.30;;
64313;SDS011;50650;48.180;11.524;2023-05-24T01:08:22;4.18;;;2.53;;
64313;SDS011;50650;48.180;11.524;2023-05-24T01:11:00;3.20;;;2.80;;
64313;SDS011;50650;48.180;11.524;2023-05-24T01:13:32;3.08;;;2.70;;
64313;SDS011;50650;48.180;11.524;2023-05-24T01:16:04;4.82;;;2.92;;
64313;SDS011;50650;48.180;11.524;2023-05-24T01:18:37;5.95;;;2.67;;
64313;SDS011;50650;48.180;11.524;2023-05-24T01:21:09;3.50;;;2.60;;
64313;SDS011;50650;48.180;11.524;2023-05-24T01:23:43;5.30;;;2.65;;
64313;SDS011;50650;48.180;11.524;2023-05-24T01:26:17;3.38;;;2.38;;
64313;SDS011;50650;48.180;11.524;2023-05-24T01:28:47;5.28;;;2.50;;
64313;SDS011;50650;48.180;11.524;2023-05-24T01:31:14;4.03;;;2.65;;
64313;SDS011;50650;48.180;11.524;2023-05-24T01:33:41;3.72;;;2.67;;
64313;SDS011;50650;48.180;11.524;2023-05-24T01:36:08;2.65;;;2.45;;
64313;SDS011;50650;48.180;11.524;2023-05-24T01:38:35;3.67;;;2.58;;
64313;SDS011;50650;48.180;11.524;2023-05-24T01:41:03;3.72;;;2.78;;
64313;SDS011;50650;48.180;11.524;2023-05-24T01:43:35;3.25;;;2.58;;
64313;SDS011;50650;48.180;11.524;2023-05-24T01:46:07;3.00;;;2.60;;
64313;SDS011;50650;48.180;11.524;2023-05-24T01:48:40;3.85;;;2.70;;
64313;SDS011;50650;48.180;11.524;2023-05-24T01:51:11;4.38;;;3.30;;
64313;SDS011;50650;48.180;11.524;2023-05-24T01:53:43;3.53;;;2.60;;
64313;SDS011;50650;48.180;11.524;2023-05-24T01:56:11;4.50;;;2.78;;
64313;SDS011;50650;48.180;11.524;2023-05-24T01:58:38;4.28;;;3.05;;
64313;SDS011;50650;48.180;11.524;2023-05-24T02:01:07;3.20;;;2.90;;
64313;SDS011;50650;48.180;11.524;2023-05-24T02:03:34;5.05;;;2.85;;
64313;SDS011;50650;48.180;11.524;2023-05-24T02:06:02;4.72;;;2.95;;
64313;SDS011;50650;48.180;11.524;2023-05-24T02:08:28;3.55;;;2.95;;
64313;SDS011;50650;48.180;11.524;2023-05-24T02:10:55;3.53;;;2.78;;
64313;SDS011;50650;48.180;11.524;2023-05-24T02:13:21;4.05;;;3.00;;
64313;SDS011;50650;48.180;11.524;2023-05-24T02:15:48;3.42;;;2.80;;
64313;SDS011;50650;48.180;11.524;2023-05-24T02:18:17;6.15;;;3.05;;
64313;SDS011;50650;48.180;11.524;2023-05-24T02:20:43;4.57;;;3.10;;
64313;SDS011;50650;48.180;11.524;2023-05-24T02:23:10;4.07;;;2.67;;
64313;SDS011;50650;48.180;11.524;2023-05-24T02:25:37;4.55;;;3.25;;
64313;SDS011;50650;48.180;11.524;2023-05-24T02:28:03;4.25;;;2.92;;
64313;SDS011;50650;48.180;11.524;2023-05-24T02:30:30;4.22;;;3.20;;
64313;SDS011;50650;48.180;11.524;2023-05-24T02:32:56;3.33;;;2.72;;
64313;SDS011;50650;48.180;11.524;2023-05-24T02:35:24;4.65;;;3.03;;
64313;SDS011;50650;48.180;11.524;2023-05-24T02:37:51;3.55;;;2.78;;
64313;SDS011;50650;48.180;11.524;2023-05-24T02:40:17;3.67;;;2.85;;
64313;SDS011;50650;48.180;11.524;2023-05-24T02:42:43;3.85;;;3.25;;
64313;SDS011;50650;48.180;11.524;2023-05-24T02:45:10;3.65;;;2.70;;
64313;SDS011;50650;48.180;11.524;2023-05-24T02:47:36;4.85;;;3.40;;
64313;SDS011;50650;48.180;11.524;2023-05-24T02:50:03;4.38;;;2.97;;
64313;SDS011;50650;48.180;11.524;2023-05-24T02:52:31;3.85;;;3.00;;
64313;SDS011;50650;48.180;11.524;2023-05-24T02:54:57;4.00;;;3.22;;
64313;SDS011;50650;48.180;11.524;2023-05-24T02:57:24;4.40;;;2.85;;
64313;SDS011;50650;48.180;11.524;2023-05-24T02:59:50;3.67;;;3.15;;
64313;SDS011;50650;48.180;11.524;2023-05-24T03:02:17;4.60;;;3.65;;
64313;SDS011;50650;48.180;11.524;2023-05-24T03:04:43;4.22;;;3.40;;
64313;SDS011;50650;48.180;11.524;2023-05-24T03:07:10;4.05;;;3.17;;
64313;SDS011;50650;48.180;11.524;2023-05-24T03:09:37;4.88;;;3.05;;
64313;SDS011;50650;48.180;11.524;2023-05-24T03:12:04;3.28;;;2.70;;
64313;SDS011;50650;48.180;11.524;2023-05-24T03:14:31;4.47;;;3.30;;
64313;SDS011;50650;48.180;11.524;2023-05-24T03:16:57;4.22;;;3.13;;
64313;SDS011;50650;48.180;11.524;2023-05-24T03:19:24;5.18;;;3.20;;
64313;SDS011;50650;48.180;11.524;2023-05-24T03:21:50;4.97;;;3.70;;
64313;SDS011;50650;48.180;11.524;2023-05-24T03:24:16;4.22;;;3.50;;
64313;SDS011;50650;48.180;11.524;2023-05-24T03:26:44;4.22;;;3.17;;
64313;SDS011;50650;48.180;11.524;2023-05-24T03:29:11;4.45;;;3.28;;
64313;SDS011;50650;48.180;11.524;2023-05-24T03:31:37;3.95;;;3.00;;
64313;SDS011;50650;48.180;11.524;2023-05-24T03:34:03;5.13;;;3.83;;
64313;SDS011;50650;48.180;11.524;2023-05-24T03:36:30;5.20;;;3.45;;
64313;SDS011;50650;48.180;11.524;2023-05-24T03:38:56;4.13;;;3.28;;
64313;SDS011;50650;48.180;11.524;2023-05-24T03:41:23;4.47;;;3.25;;
64313;SDS011;50650;48.180;11.524;2023-05-24T03:43:51;4.10;;;3.30;;
64313;SDS011;50650;48.180;11.524;2023-05-24T03:46:18;4.38;;;3.60;;
64313;SDS011;50650;48.180;11.524;2023-05-24T03:48:44;6.82;;;4.10;;
64313;SDS011;50650;48.180;11.524;2023-05-24T03:51:11;4.93;;;3.63;;
64313;SDS011;50650;48.180;11.524;2023-05-24T03:53:37;6.13;;;4.55;;
64313;SDS011;50650;48.180;11.524;2023-05-24T03:56:03;4.30;;;3.35;;
64313;SDS011;50650;48.180;11.524;2023-05-24T03:58:30;4.90;;;3.70;;
64313;SDS011;50650;48.180;11.524;2023-05-24T04:00:58;4.85;;;4.05;;
64313;SDS011;50650;48.180;11.524;2023-05-24T04:03:25;5.22;;;4.03;;
64313;SDS011;50650;48.180;11.524;2023-05-24T04:05:52;4.72;;;3.80;;
64313;SDS011;50650;48.180;11.524;2023-05-24T04:08:18;5.15;;;3.83;;
64313;SDS011;50650;48.180;11.524;2023-05-24T04:10:45;5.18;;;4.20;;
64313;SDS011;50650;48.180;11.524;2023-05-24T04:13:11;5.10;;;4.00;;
64313;SDS011;50650;48.180;11.524;2023-05-24T04:15:37;5.57;;;3.90;;
64313;SDS011;50650;48.180;11.524;2023-05-24T04:18:06;4.28;;;3.55;;
64313;SDS011;50650;48.180;11.524;2023-05-24T04:20:32;6.88;;;3.83;;
64313;SDS011;50650;48.180;11.524;2023-05-24T04:22:58;5.57;;;3.80;;
64313;SDS011;50650;48.180;11.524;2023-05-24T04:25:25;5.75;;;4.10;;
64313;SDS011;50650;48.180;11.524;2023-05-24T04:27:51;9.63;;;3.92;;
64313;SDS011;50650;48.180;11.524;2023-05-24T04:30:18;7.82;;;3.72;;
64313;SDS011;50650;48.180;11.524;2023-05-24T04:32:45;5.45;;;3.50;;
64313;SDS011;50650;48.180;11.524;2023-05-24T04:35:13;4.22;;;3.30;;
64313;SDS011;50650;48.180;11.524;2023-05-24T04:37:40;5.25;;;3.30;;
64313;SDS011;50650;48.180;11.524;2023-05-24T04:40:07;4.70;;;2.97;;
64313;SDS011;50650;48.180;11.524;2023-05-24T04:42:34;6.00;;;3.63;;
64313;SDS011;50650;48.180;11.524;2023-05-24T04:45:01;5.30;;;3.17;;
64313;SDS011;50650;48.180;11.524;2023-05-24T04:47:27;4.93;;;3.28;;
64313;SDS011;50650;48.180;11.524;2023-05-24T04:49:54;6.38;;;3.67;;
64313;SDS011;50650;48.180;11.524;2023-05-24T04:52:21;7.43;;;2.67;;
64313;SDS011;50650;48.180;11.524;2023-05-24T04:54:48;6.43;;;3.08;;
64313;SDS011;50650;48.180;11.524;2023-05-24T04:57:15;7.25;;;3.72;;
64313;SDS011;50650;48.180;11.524;2023-05-24T04:59:41;4.35;;;2.80;;
64313;SDS011;50650;48.180;11.524;2023-05-24T05:02:08;4.78;;;3.10;;
64313;SDS011;50650;48.180;11.524;2023-05-24T05:04:34;5.15;;;2.90;;
64313;SDS011;50650;48.180;11.524;2023-05-24T05:07:01;6.25;;;3.70;;
64313;SDS011;50650;48.180;11.524;2023-05-24T05:09:29;5.45;;;3.13;;
64313;SDS011;50650;48.180;11.524;2023-05-24T05:11:56;6.15;;;3.10;;
64313;SDS011;50650;48.180;11.524;2023-05-24T05:14:23;6.80;;;3.17;;
64313;SDS011;50650;48.180;11.524;2023-05-24T05:16:50;4.60;;;3.30;;
64313;SDS011;50650;48.180;11.524;2023-05-24T05:19:16;5.93;;;3.13;;
64313;SDS011;50650;48.180;11.524;2023-05-24T05:21:42;6.68;;;3.55;;
64313;SDS011;50650;48.180;11.524;2023-05-24T05:24:09;4.68;;;3.05;;
64313;SDS011;50650;48.180;11.524;2023-05-24T05:26:37;5.05;;;3.42;;
64313;SDS011;50650;48.180;11.524;2023-05-24T05:29:03;6.82;;;3.40;;
64313;SDS011;50650;48.180;11.524;2023-05-24T05:31:29;4.95;;;3.50;;
64313;SDS011;50650;48.180;11.524;2023-05-24T05:33:56;5.13;;;3.22;;
64313;SDS011;50650;48.180;11.524;2023-05-24T05:36:22;4.80;;;3.42;;
64313;SDS011;50650;48.180;11.524;2023-05-24T05:38:48;6.05;;;3.72;;
64313;SDS011;50650;48.180;11.524;2023-05-24T05:41:15;6.38;;;4.55;;
64313;SDS011;50650;48.180;11.524;2023-05-24T05:43:43;4.80;;;3.85;;
64313;SDS011;50650;48.180;11.524;2023-05-24T05:46:09;7.82;;;4.15;;
64313;SDS011;50650;48.180;11.524;2023-05-24T05:48:37;5.47;;;3.88;;
64313;SDS011;50650;48.180;11.524;2023-05-24T05:51:03;6.35;;;4.28;;
64313;SDS011;50650;48.180;11.524;2023-05-24T05:53:32;6.50;;;4.20;;
64313;SDS011;50650;48.180;11.524;2023-05-24T05:55:58;6.90;;;4.07;;
64313;SDS011;50650;48.180;11.524;2023-05-24T05:58:25;7.25;;;4.40;;
64313;SDS011;50650;48.180;11.524;2023-05-24T06:00:52;6.78;;;3.83;;
64313;SDS011;50650;48.180;11.524;2023-05-24T06:03:19;6.68;;;4.38;;
64313;SDS011;50650;48.180;11.524;2023-05-24T06:05:45;5.82;;;4.40;;
64313;SDS011;50650;48.180;11.524;2023-05-24T06:08:12;8.25;;;4.57;;
64313;SDS011;50650;48.180;11.524;2023-05-24T06:10:38;7.45;;;3.97;;
64313;SDS011;50650;48.180;11.524;2023-05-24T06:13:04;6.50;;;4.18;;
64313;SDS011;50650;48.180;11.524;2023-05-24T06:15:31;5.22;;;3.80;;
64313;SDS011;50650;48.180;11.524;2023-05-24T06:18:00;6.72;;;4.47;;
64313;SDS011;50650;48.180;11.524;2023-05-24T06:20:26;6.13;;;4.50;;
64313;SDS011;50650;48.180;11.524;2023-05-24T06:22:53;7.22;;;4.20;;
64313;SDS011;50650;48.180;11.524;2023-05-24T06:25:19;5.20;;;4.10;;
64313;SDS011;50650;48.180;11.524;2023-05-24T06:27:48;6.25;;;4.75;;
64313;SDS011;50650;48.180;11.524;2023-05-24T06:30:14;6.30;;;4.15;;
64313;SDS011;50650;48.180;11.524;2023-05-24T06:32:41;5.93;;;4.05;;
64313;SDS011;50650;48.180;11.524;2023-05-24T06:35:09;5.95;;;4.13;;
64313;SDS011;50650;48.180;11.524;2023-05-24T06:37:35;6.20;;;4.38;;
64313;SDS011;50650;48.180;11.524;2023-05-24T06:40:02;6.70;;;3.92;;
64313;SDS011;50650;48.180;11.524;2023-05-24T06:42:30;6.13;;;3.92;;
64313;SDS011;50650;48.180;11.524;2023-05-24T06:44:57;6.45;;;4.03;;
64313;SDS011;50650;48.180;11.524;2023-05-24T06:47:23;4.95;;;3.88;;
64313;SDS011;50650;48.180;11.524;2023-05-24T06:49:49;7.05;;;4.43;;
64313;SDS011;50650;48.180;11.524;2023-05-24T06:52:17;4.72;;;3.67;;
64313;SDS011;50650;48.180;11.524;2023-05-24T06:54:43;6.32;;;4.32;;
64313;SDS011;50650;48.180;11.524;2023-05-24T06:57:10;5.25;;;4.07;;
64313;SDS011;50650;48.180;11.524;2023-05-24T06:59:36;6.53;;;4.00;;
64313;SDS011;50650;48.180;11.524;2023-05-24T07:02:03;5.65;;;3.95;;
64313;SDS011;50650;48.180;11.524;2023-05-24T07:04:29;8.40;;;4.00;;
64313;SDS011;50650;48.180;11.524;2023-05-24T07:06:56;6.47;;;4.45;;
64313;SDS011;50650;48.180;11.524;2023-05-24T07:09:24;7.38;;;4.45;;
64313;SDS011;50650;48.180;11.524;2023-05-24T07:11:50;5.60;;;4.20;;
64313;SDS011;50650;48.180;11.524;2023-05-24T07:14:17;5.93;;;4.50;;
64313;SDS011;50650;48.180;11.524;2023-05-24T07:16:43;6.55;;;4.18;;
64313;SDS011;50650;48.180;11.524;2023-05-24T07:19:10;6.70;;;4.40;;
64313;SDS011;50650;48.180;11.524;2023-05-24T07:21:37;6.18;;;4.75;;
64313;SDS011;50650;48.180;11.524;2023-05-24T07:24:04;6.93;;;4.32;;
64313;SDS011;50650;48.180;11.524;2023-05-24T07:26:32;4.80;;;3.78;;
64313;SDS011;50650;48.180;11.524;2023-05-24T07:28:58;5.70;;;3.97;;
64313;SDS011;50650;48.180;11.524;2023-05-24T07:31:25;5.57;;;4.03;;
64313;SDS011;50650;48.180;11.524;2023-05-24T07:33:51;7.20;;;4.38;;
64313;SDS011;50650;48.180;11.524;2023-05-24T07:36:18;7.88;;;4.43;;
64313;SDS011;50650;48.180;11.524;2023-05-24T07:38:45;5.28;;;4.00;;
64313;SDS011;50650;48.180;11.524;2023-05-24T07:41:12;4.60;;;3.67;;
64313;SDS011;50650;48.180;11.524;2023-05-24T07:43:40;7.18;;;4.15;;
64313;SDS011;50650;48.180;11.524;2023-05-24T07:46:06;5.10;;;4.35;;
64313;SDS011;50650;48.180;11.524;2023-05-24T07:48:34;7.95;;;4.80;;
64313;SDS011;50650;48.180;11.524;2023-05-24T07:51:00;7.32;;;4.95;;
64313;SDS011;50650;48.180;11.524;2023-05-24T07:53:27;6.40;;;4.70;;
64313;SDS011;50650;48.180;11.524;2023-05-24T07:55:53;7.50;;;5.72;;
64313;SDS011;50650;48.180;11.524;2023-05-24T07:58:20;7.88;;;5.28;;
64313;SDS011;50650;48.180;11.524;2023-05-24T08:00:48;7.00;;;5.40;;
64313;SDS011;50650;48.180;11.524;2023-05-24T08:03:14;6.35;;;5.00;;
64313;SDS011;50650;48.180;11.524;2023-05-24T08:05:41;7.40;;;5.78;;
64313;SDS011;50650;48.180;11.524;2023-05-24T08:08:08;7.22;;;6.00;;
64313;SDS011;50650;48.180;11.524;2023-05-24T08:10:34;8.20;;;6.90;;
64313;SDS011;50650;48.180;11.524;2023-05-24T08:13:01;8.82;;;6.47;;
64313;SDS011;50650;48.180;11.524;2023-05-24T08:15:29;8.07;;;5.47;;
64313;SDS011;50650;48.180;11.524;2023-05-24T08:17:56;6.97;;;5.65;;
64313;SDS011;50650;48.180;11.524;2023-05-24T08:20:23;8.05;;;4.35;;
64313;SDS011;50650;48.180;11.524;2023-05-24T08:22:49;7.60;;;5.22;;
64313;SDS011;50650;48.180;11.524;2023-05-24T08:25:15;6.38;;;4.50;;
64313;SDS011;50650;48.180;11.524;2023-05-24T08:27:42;5.68;;;4.45;;
64313;SDS011;50650;48.180;11.524;2023-05-24T08:30:08;5.30;;;4.25;;
64313;SDS011;50650;48.180;11.524;2023-05-24T08:32:37;7.70;;;4.72;;
64313;SDS011;50650;48.180;11.524;2023-05-24T08:35:05;11.43;;;4.60;;
64313;SDS011;50650;48.180;11.524;2023-05-24T08:37:32;8.57;;;4.10;;
64313;SDS011;50650;48.180;11.524;2023-05-24T08:39:58;9.25;;;4.43;;
64313;SDS011;50650;48.180;11.524;2023-05-24T08:42:25;7.00;;;3.97;;
64313;SDS011;50650;48.180;11.524;2023-05-24T08:44:57;6.85;;;4.60;;
64313;SDS011;50650;48.180;11.524;2023-05-24T08:47:24;8.60;;;4.78;;
64313;SDS011;50650;48.180;11.524;2023-05-24T08:49:51;6.53;;;5.03;;
64313;SDS011;50650;48.180;11.524;2023-05-24T08:52:20;7.50;;;5.00;;
64313;SDS011;50650;48.180;11.524;2023-05-24T08:54:47;6.93;;;4.57;;
64313;SDS011;50650;48.180;11.524;2023-05-24T08:57:14;8.70;;;4.82;;
64313;SDS011;50650;48.180;11.524;2023-05-24T08:59:40;6.25;;;4.40;;
64313;SDS011;50650;48.180;11.524;2023-05-24T09:02:07;6.57;;;4.22;;
64313;SDS011;50650;48.180;11.524;2023-05-24T09:04:34;8.80;;;5.47;;
64313;SDS011;50650;48.180;11.524;2023-05-24T09:07:01;8.43;;;4.85;;
64313;SDS011;50650;48.180;11.524;2023-05-24T09:09:29;7.45;;;5.00;;
64313;SDS011;50650;48.180;11.524;2023-05-24T09:11:58;6.43;;;4.97;;
64313;SDS011;50650;48.180;11.524;2023-05-24T09:14:27;6.82;;;4.80;;
64313;SDS011;50650;48.180;11.524;2023-05-24T09:16:54;7.35;;;4.97;;
64313;SDS011;50650;48.180;11.524;2023-05-24T09:19:20;12.75;;;6.13;;
64313;SDS011;50650;48.180;11.524;2023-05-24T09:21:47;6.93;;;5.10;;
64313;SDS011;50650;48.180;11.524;2023-05-24T09:24:14;6.45;;;5.13;;
64313;SDS011;50650;48.180;11.524;2023-05-24T09:26:42;10.13;;;5.07;;
64313;SDS011;50650;48.180;11.524;2023-05-24T09:29:09;6.75;;;4.82;;
64313;SDS011;50650;48.180;11.524;2023-05-24T09:31:37;8.93;;;5.00;;
64313;SDS011;50650;48.180;11.524;2023-05-24T09:34:05;8.32;;;4.65;;
64313;SDS011;50650;48.180;11.524;2023-05-24T09:36:34;10.98;;;5.65;;
64313;SDS011;50650;48.180;11.524;2023-05-24T09:39:05;8.18;;;5.07;;
64313;SDS011;50650;48.180;11.524;2023-05-24T09:41:34;9.70;;;4.60;;
64313;SDS011;50650;48.180;11.524;2023-05-24T09:44:02;9.65;;;5.05;;
64313;SDS011;50650;48.180;11.524;2023-05-24T09:46:33;10.05;;;4.75;;
64313;SDS011;50650;48.180;11.524;2023-05-24T09:49:02;8.27;;;4.63;;
64313;SDS011;50650;48.180;11.524;2023-05-24T09:51:30;7.95;;;4.63;;
64313;SDS011;50650;48.180;11.524;2023-05-24T09:53:57;8.88;;;4.95;;
64313;SDS011;50650;48.180;11.524;2023-05-24T09:56:25;12.00;;;5.13;;
64313;SDS011;50650;48.180;11.524;2023-05-24T09:58:52;9.98;;;5.10;;
64313;SDS011;50650;48.180;11.524;2023-05-24T10:01:21;11.65;;;4.88;;
64313;SDS011;50650;48.180;11.524;2023-05-24T10:03:51;6.55;;;4.38;;
64313;SDS011;50650;48.180;11.524;2023-05-24T10:06:18;7.60;;;4.75;;
64313;SDS011;50650;48.180;11.524;2023-05-24T10:08:46;10.75;;;5.05;;
64313;SDS011;50650;48.180;11.524;2023-05-24T10:11:13;6.75;;;4.75;;
64313;SDS011;50650;48.180;11.524;2023-05-24T10:13:39;9.18;;;4.63;;
64313;SDS011;50650;48.180;11.524;2023-05-24T10:16:06;8.82;;;4.90;;
64313;SDS011;50650;48.180;11.524;2023-05-24T10:18:34;9.02;;;5.13;;
64313;SDS011;50650;48.180;11.524;2023-05-24T10:21:01;10.27;;;4.32;;
64313;SDS011;50650;48.180;11.524;2023-05-24T10:23:32;11.20;;;4.57;;
64313;SDS011;50650;48.180;11.524;2023-05-24T10:26:01;11.48;;;4.60;;
64313;SDS011;50650;48.180;11.524;2023-05-24T10:28:30;6.05;;;4.15;;
64313;SDS011;50650;48.180;11.524;2023-05-24T10:31:00;9.48;;;4.28;;
64313;SDS011;50650;48.180;11.524;2023-05-24T10:33:28;10.77;;;4.60;;
64313;SDS011;50650;48.180;11.524;2023-05-24T10:35:56;9.18;;;4.15;;
64313;SDS011;50650;48.180;11.524;2023-05-24T10:38:23;8.27;;;4.20;;
64313;SDS011;50650;48.180;11.524;2023-05-24T10:40:50;11.00;;;4.38;;
64313;SDS011;50650;48.180;11.524;2023-05-24T10:43:16;8.90;;;4.50;;
64313;SDS011;50650;48.180;11.524;2023-05-24T10:45:46;7.97;;;3.97;;
64313;SDS011;50650;48.180;11.524;2023-05-24T10:48:30;8.30;;;4.20;;
64313;SDS011;50650;48.180;11.524;2023-05-24T10:51:00;10.23;;;4.50;;
64313;SDS011;50650;48.180;11.524;2023-05-24T10:53:55;7.65;;;3.97;;
64313;SDS011;50650;48.180;11.524;2023-05-24T10:56:22;21.55;;;4.53;;
64313;SDS011;50650;48.180;11.524;2023-05-24T10:58:58;11.70;;;3.97;;
64313;SDS011;50650;48.180;11.524;2023-05-24T11:01:25;8.77;;;4.25;;
64313;SDS011;50650;48.180;11.524;2023-05-24T11:03:52;6.85;;;4.30;;
64313;SDS011;50650;48.180;11.524;2023-05-24T11:06:20;7.05;;;4.10;;
64313;SDS011;50650;48.180;11.524;2023-05-24T11:09:10;9.07;;;3.92;;
64313;SDS011;50650;48.180;11.524;2023-05-24T11:11:36;9.55;;;3.92;;
64313;SDS011;50650;48.180;11.524;2023-05-24T11:14:04;11.23;;;4.10;;
64313;SDS011;50650;48.180;11.524;2023-05-24T11:16:31;12.00;;;3.97;;
64313;SDS011;50650;48.180;11.524;2023-05-24T11:18:58;6.63;;;3.50;;
64313;SDS011;50650;48.180;11.524;2023-05-24T11:21:37;9.70;;;3.58;;
64313;SDS011;50650;48.180;11.524;2023-05-24T11:24:04;10.35;;;3.60;;
64313;SDS011;50650;48.180;11.524;2023-05-24T11:26:31;6.28;;;3.28;;
64313;SDS011;50650;48.180;11.524;2023-05-24T11:28:59;9.32;;;4.03;;
64313;SDS011;50650;48.180;11.524;2023-05-24T11:31:26;7.05;;;3.33;;
64313;SDS011;50650;48.180;11.524;2023-05-24T11:33:52;7.80;;;3.60;;
64313;SDS011;50650;48.180;11.524;2023-05-24T11:36:19;9.30;;;3.65;;
64313;SDS011;50650;48.180;11.524;2023-05-24T11:38:47;7.30;;;3.10;;
64313;SDS011;50650;48.180;11.524;2023-05-24T11:41:14;11.50;;;3.85;;
64313;SDS011;50650;48.180;11.524;2023-05-24T11:43:40;9.90;;;3.58;;
64313;SDS011;50650;48.180;11.524;2023-05-24T11:46:07;8.98;;;3.35;;
64313;SDS011;50650;48.180;11.524;2023-05-24T11:48:33;9.38;;;3.30;;
64313;SDS011;50650;48.180;11.524;2023-05-24T11:51:00;7.25;;;3.00;;
64313;SDS011;50650;48.180;11.524;2023-05-24T11:53:29;8.90;;;3.20;;
64313;SDS011;50650;48.180;11.524;2023-05-24T11:55:57;8.05;;;3.60;;
64313;SDS011;50650;48.180;11.524;2023-05-24T11:58:27;5.57;;;2.95;;
64313;SDS011;50650;48.180;11.524;2023-05-24T12:00:56;7.10;;;3.17;;
64313;SDS011;50650;48.180;11.524;2023-05-24T12:03:23;8.05;;;3.25;;
64313;SDS011;50650;48.180;11.524;2023-05-24T12:05:49;10.80;;;3.05;;
64313;SDS011;50650;48.180;11.524;2023-05-24T12:08:16;7.05;;;3.30;;
64313;SDS011;50650;48.180;11.524;2023-05-24T12:10:44;6.45;;;2.95;;
64313;SDS011;50650;48.180;11.524;2023-05-24T12:13:19;7.95;;;3.05;;
64313;SDS011;50650;48.180;11.524;2023-05-24T12:15:48;9.05;;;3.38;;
64313;SDS011;50650;48.180;11.524;2023-05-24T12:18:18;6.80;;;3.22;;
64313;SDS011;50650;48.180;11.524;2023-05-24T12:20:44;7.72;;;3.30;;
64313;SDS011;50650;48.180;11.524;2023-05-24T12:23:11;6.63;;;2.92;;
64313;SDS011;50650;48.180;11.524;2023-05-24T12:25:39;9.73;;;3.15;;
64313;SDS011;50650;48.180;11.524;2023-05-24T12:28:06;6.40;;;3.17;;
64313;SDS011;50650;48.180;11.524;2023-05-24T12:30:35;8.60;;;2.90;;
64313;SDS011;50650;48.180;11.524;2023-05-24T12:33:06;9.55;;;3.10;;
64313;SDS011;50650;48.180;11.524;2023-05-24T12:35:33;6.97;;;3.13;;
64313;SDS011;50650;48.180;11.524;2023-05-24T12:37:59;7.55;;;3.40;;
64313;SDS011;50650;48.180;11.524;2023-05-24T12:40:26;16.75;;;3.60;;
64313;SDS011;50650;48.180;11.524;2023-05-24T12:42:53;9.45;;;2.85;;
64313;SDS011;50650;48.180;11.524;2023-05-24T12:45:21;6.93;;;3.20;;
64313;SDS011;50650;48.180;11.524;2023-05-24T12:47:51;9.15;;;3.17;;
64313;SDS011;50650;48.180;11.524;2023-05-24T12:50:17;6.43;;;2.92;;
64313;SDS011;50650;48.180;11.524;2023-05-24T12:52:45;6.78;;;3.20;;
64313;SDS011;50650;48.180;11.524;2023-05-24T12:55:11;9.07;;;3.22;;
64313;SDS011;50650;48.180;11.524;2023-05-24T12:57:38;10.73;;;3.20;;
64313;SDS011;50650;48.180;11.524;2023-05-24T13:00:06;10.05;;;2.83;;
64313;SDS011;50650;48.180;11.524;2023-05-24T13:02:34;6.38;;;2.80;;
64313;SDS011;50650;48.180;11.524;2023-05-24T13:05:02;9.82;;;3.20;;
64313;SDS011;50650;48.180;11.524;2023-05-24T13:07:29;7.10;;;3.60;;
64313;SDS011;50650;48.180;11.524;2023-05-24T13:09:56;8.10;;;3.28;;
64313;SDS011;50650;48.180;11.524;2023-05-24T13:12:23;10.52;;;3.45;;
64313;SDS011;50650;48.180;11.524;2023-05-24T13:14:49;8.45;;;3.35;;
64313;SDS011;50650;48.180;11.524;2023-05-24T13:17:15;9.32;;;3.05;;
64313;SDS011;50650;48.180;11.524;2023-05-24T13:19:42;9.75;;;3.50;;
64313;SDS011;50650;48.180;11.524;2023-05-24T13:22:09;5.82;;;2.70;;
64313;SDS011;50650;48.180;11.524;2023-05-24T13:24:36;5.60;;;2.63;;
64313;SDS011;50650;48.180;11.524;2023-05-24T13:27:02;11.15;;;3.00;;
64313;SDS011;50650;48.180;11.524;2023-05-24T13:29:29;7.60;;;3.00;;
64313;SDS011;50650;48.180;11.524;2023-05-24T13:31:56;10.13;;;2.60;;
64313;SDS011;50650;48.180;11.524;2023-05-24T13:34:22;10.52;;;2.85;;
64313;SDS011;50650;48.180;11.524;2023-05-24T13:36:49;6.57;;;3.35;;
64313;SDS011;50650;48.180;11.524;2023-05-24T13:39:17;6.40;;;2.85;;
64313;SDS011;50650;48.180;11.524;2023-05-24T13:41:44;6.30;;;3.00;;
64313;SDS011;50650;48.180;11.524;2023-05-24T13:44:11;6.72;;;2.80;;
64313;SDS011;50650;48.180;11.524;2023-05-24T13:46:37;8.10;;;3.15;;
64313;SDS011;50650;48.180;11.524;2023-05-24T13:49:04;7.60;;;3.00;;
64313;SDS011;50650;48.180;11.524;2023-05-24T13:51:30;11.02;;;2.97;;
64313;SDS011;50650;48.180;11.524;2023-05-24T13:53:57;8.98;;;3.42;;
64313;SDS011;50650;48.180;11.524;2023-05-24T13:56:25;7.40;;;3.30;;
64313;SDS011;50650;48.180;11.524;2023-05-24T13:58:56;6.45;;;3.45;;
64313;SDS011;50650;48.180;11.524;2023-05-24T14:01:23;12.50;;;3.67;;
64313;SDS011;50650;48.180;11.524;2023-05-24T14:03:49;10.30;;;3.80;;
64313;SDS011;50650;48.180;11.524;2023-05-24T14:06:16;11.90;;;4.07;;
64313;SDS011;50650;48.180;11.524;2023-05-24T14:08:43;8.63;;;3.10;;
64313;SDS011;50650;48.180;11.524;2023-05-24T14:11:10;8.10;;;3.45;;
64313;SDS011;50650;48.180;11.524;2023-05-24T14:13:39;9.98;;;3.80;;
64313;SDS011;50650;48.180;11.524;2023-05-24T14:16:06;8.75;;;3.80;;
64313;SDS011;50650;48.180;11.524;2023-05-24T14:18:33;9.10;;;3.90;;
64313;SDS011;50650;48.180;11.524;2023-05-24T14:21:00;9.75;;;3.88;;
64313;SDS011;50650;48.180;11.524;2023-05-24T14:23:26;11.20;;;3.83;;
64313;SDS011;50650;48.180;11.524;2023-05-24T14:25:55;8.77;;;3.78;;
64313;SDS011;50650;48.180;11.524;2023-05-24T14:28:22;10.15;;;4.00;;
64313;SDS011;50650;48.180;11.524;2023-05-24T14:30:49;8.68;;;3.78;;
64313;SDS011;50650;48.180;11.524;2023-05-24T14:33:16;13.45;;;3.95;;
64313;SDS011;50650;48.180;11.524;2023-05-24T14:35:42;10.32;;;3.78;;